Time;durP1;ratioP1;P1;durP2;ratioP2;P2;SDS_P1;SDS_P2;PMS_P1;PMS_P2;Temp;Humidity;BMP_temperature;BMP_pressure;BME280_temperature;BME280_humidity;BME280_pressure;Samples;Min_cycle;Max_cycle;Signal;HPM_P1;HPM_P2
2023/04/13 00:02:18;;;;;;;0.80;0.32;;;;;;;22.90;37.92;99407.84;5074320;27;96903;-78
2023/04/13 00:04:45;;;;;;;0.68;0.50;;;;;;;22.90;37.53;99411.41;5076068;27;96994;-78
2023/04/13 00:07:13;;;;;;;0.47;0.30;;;;;;;22.89;37.78;99404.25;5069088;27;96893;-78
2023/04/13 00:09:40;;;;;;;1.05;0.30;;;;;;;22.90;37.79;99392.25;5063550;27;99294;-79
2023/04/13 00:12:09;;;;;;;0.45;0.25;;;;;;;22.90;37.75;99385.94;5069694;27;96753;-79
2023/04/13 00:14:36;;;;;;;0.30;0.30;;;;;;;22.90;37.88;99388.69;5072948;27;96668;-79
2023/04/13 00:17:02;;;;;;;0.70;0.40;;;;;;;22.89;37.72;99378.78;5078779;27;96859;-78
2023/04/13 00:19:32;;;;;;;0.47;0.40;;;;;;;22.90;37.85;99386.78;5073024;27;97624;-78
2023/04/13 00:21:59;;;;;;;0.73;0.40;;;;;;;22.90;37.65;99381.31;5071996;27;97690;-79
2023/04/13 00:24:25;;;;;;;0.20;0.20;;;;;;;22.90;37.60;99375.81;5075936;27;96703;-78
2023/04/13 00:26:53;;;;;;;0.30;0.20;;;;;;;22.90;37.36;99364.03;5069000;27;96776;-78
2023/04/13 00:29:20;;;;;;;0.38;0.22;;;;;;;22.90;37.71;99375.00;5078287;27;97328;-79
2023/04/13 00:31:47;;;;;;;0.93;0.40;;;;;;;22.90;37.75;99359.41;5066749;27;97300;-78
2023/04/13 00:34:13;;;;;;;0.32;0.20;;;;;;;22.90;37.64;99370.34;5075900;27;96787;-78
2023/04/13 00:36:40;;;;;;;0.40;0.40;;;;;;;22.90;38.05;99364.03;5088165;27;96632;-78
2023/04/13 00:39:07;;;;;;;0.47;0.30;;;;;;;22.89;37.54;99354.16;5076269;27;98283;-78
2023/04/13 00:41:36;;;;;;;0.65;0.25;;;;;;;22.90;37.85;99358.56;5073520;27;96682;-78
2023/04/13 00:44:02;;;;;;;0.40;0.30;;;;;;;22.89;37.54;99349.50;5083591;27;97559;-79
2023/04/13 00:46:30;;;;;;;0.40;0.20;;;;;;;22.90;37.68;99353.09;5078280;27;96854;-79
2023/04/13 00:49:00;;;;;;;0.47;0.25;;;;;;;22.88;37.68;99350.56;5072071;27;97843;-79
2023/04/13 00:51:29;;;;;;;0.57;0.10;;;;;;;22.89;37.75;99343.19;5072209;27;97484;-78
2023/04/13 00:53:57;;;;;;;0.30;0.20;;;;;;;22.89;37.95;99348.69;5068335;27;96709;-78
2023/04/13 00:56:26;;;;;;;0.75;0.30;;;;;;;22.89;37.79;99351.41;5073516;27;97407;-78
2023/04/13 00:58:55;;;;;;;0.28;0.20;;;;;;;22.90;37.85;99353.94;5087844;27;99766;-78
2023/04/13 01:01:22;;;;;;;0.65;0.40;;;;;;;22.89;37.74;99345.94;5071579;27;97247;-79
2023/04/13 01:03:52;;;;;;;0.35;0.20;;;;;;;22.89;37.86;99348.69;5059307;27;96851;-79
2023/04/13 01:06:26;;;;;;;0.50;0.30;;;;;;;22.90;37.54;99355.81;5081023;27;96723;-79
2023/04/13 01:09:07;;;;;;;0.60;0.22;;;;;;;22.89;37.91;99368.69;5075425;27;99441;-78
2023/04/13 01:11:41;;;;;;;0.47;0.30;;;;;;;22.88;37.96;99350.56;5071806;27;97468;-79
2023/04/13 01:14:28;;;;;;;0.73;0.40;;;;;;;22.88;37.57;99350.56;5076613;27;96742;-78
2023/04/13 01:17:01;;;;;;;0.50;0.30;;;;;;;22.88;37.69;99347.84;5052941;27;96771;-78
2023/04/13 01:19:56;;;;;;;0.28;0.20;;;;;;;22.89;37.66;99343.19;5068502;27;99460;-78
2023/04/13 01:22:27;;;;;;;0.40;0.20;;;;;;;22.86;37.70;99341.75;5068323;27;100633;-78
2023/04/13 01:25:06;;;;;;;0.30;0.20;;;;;;;22.87;37.76;99345.31;5061037;27;96827;-79
2023/04/13 01:27:46;;;;;;;0.30;0.20;;;;;;;22.87;37.79;99346.16;5078578;27;96790;-78
2023/04/13 01:30:15;;;;;;;0.50;0.30;;;;;;;22.87;37.45;99345.31;5069924;27;97693;-79
2023/04/13 01:32:44;;;;;;;0.40;0.20;;;;;;;22.86;37.51;99347.22;5076630;27;100168;-79
2023/04/13 01:35:11;;;;;;;0.38;0.30;;;;;;;22.87;37.50;99346.16;5079070;27;96857;-78
2023/04/13 01:37:42;;;;;;;0.77;0.50;;;;;;;22.90;37.48;99358.56;5069758;27;96882;-78
2023/04/13 01:40:12;;;;;;;0.47;0.25;;;;;;;22.88;37.80;99358.78;5082762;27;99151;-78
2023/04/13 01:42:46;;;;;;;0.55;0.25;;;;;;;22.88;37.80;99350.56;5060939;27;99200;-78
2023/04/13 01:45:39;;;;;;;0.45;0.30;;;;;;;22.89;37.73;99356.88;5062628;27;96757;-78
2023/04/13 01:48:11;;;;;;;0.55;0.20;;;;;;;22.89;37.84;99351.41;5058603;27;96723;-79
2023/04/13 01:50:57;;;;;;;1.00;0.30;;;;;;;22.87;37.81;99357.13;5075142;27;98880;-79
2023/04/13 01:53:42;;;;;;;0.32;0.20;;;;;;;22.87;37.56;99357.13;5072352;27;98589;-78
2023/04/13 01:56:14;;;;;;;0.60;0.40;;;;;;;22.87;37.80;99345.31;5088117;27;96765;-78
2023/04/13 01:58:42;;;;;;;0.40;0.22;;;;;;;22.87;37.86;99359.84;5066782;27;97556;-78
2023/04/13 02:01:13;;;;;;;0.25;0.20;;;;;;;22.88;37.68;99360.69;5069519;27;100253;-78
2023/04/13 02:03:41;;;;;;;0.50;0.30;;;;;;;22.88;37.54;99375.22;5080216;27;98950;-78
2023/04/13 02:06:09;;;;;;;0.30;0.20;;;;;;;22.89;37.66;99376.06;5081345;27;96709;-78
2023/04/13 02:08:39;;;;;;;0.47;0.30;;;;;;;22.88;37.81;99383.44;5079231;27;97413;-78
2023/04/13 02:11:06;;;;;;;0.20;0.10;;;;;;;22.89;37.83;99389.75;5067124;27;96863;-78
2023/04/13 02:13:33;;;;;;;0.32;0.20;;;;;;;22.88;37.50;99391.63;5076925;27;99546;-78
2023/04/13 02:16:01;;;;;;;0.22;0.20;;;;;;;22.88;37.55;99399.00;5061713;27;97042;-78
2023/04/13 02:18:29;;;;;;;0.30;0.20;;;;;;;22.89;37.60;99400.69;5074697;27;97027;-78
2023/04/13 02:21:07;;;;;;;0.20;0.20;;;;;;;22.88;37.75;99386.16;5048444;27;98413;-78
2023/04/13 02:23:39;;;;;;;0.57;0.30;;;;;;;22.89;37.62;99397.94;5066501;27;98615;-78
2023/04/13 02:26:11;;;;;;;0.40;0.20;;;;;;;22.90;37.78;99407.84;5073779;27;97051;-78
2023/04/13 02:28:41;;;;;;;0.20;0.10;;;;;;;22.88;37.59;99397.13;5070645;27;96799;-78
2023/04/13 02:31:08;;;;;;;0.30;0.20;;;;;;;22.89;37.67;99412.47;5061000;27;99278;-78
2023/04/13 02:33:36;;;;;;;0.73;0.55;;;;;;;22.89;37.48;99417.13;5079851;27;96973;-78
2023/04/13 02:36:03;;;;;;;0.25;0.20;;;;;;;22.89;37.67;99425.31;5078983;27;97170;-78
2023/04/13 02:38:36;;;;;;;0.20;0.20;;;;;;;22.89;37.41;99420.69;5060486;27;96889;-78
2023/04/13 02:41:11;;;;;;;0.45;0.30;;;;;;;22.89;37.78;99422.59;5081963;27;99488;-78
2023/04/13 02:43:37;;;;;;;0.40;0.25;;;;;;;22.89;37.60;99422.59;5067433;27;96939;-78
2023/04/13 02:46:04;;;;;;;0.30;0.20;;;;;;;22.89;37.47;99423.44;5066295;27;97204;-77
2023/04/13 02:48:35;;;;;;;0.30;0.30;;;;;;;22.89;37.81;99430.81;5079763;27;96962;-79
2023/04/13 02:51:04;;;;;;;0.30;0.30;;;;;;;22.89;37.77;99433.53;5067002;27;99414;-78
2023/04/13 02:53:35;;;;;;;0.30;0.20;;;;;;;22.89;37.58;99445.31;5070239;27;99416;-78
2023/04/13 02:56:05;;;;;;;0.50;0.40;;;;;;;22.89;37.72;99441.75;5072526;27;97131;-78
2023/04/13 02:58:33;;;;;;;0.55;0.20;;;;;;;22.89;37.69;99437.13;5071561;27;96960;-78
2023/04/13 03:01:03;;;;;;;0.63;0.28;;;;;;;22.89;37.35;99444.50;5071629;27;98972;-79
2023/04/13 03:03:32;;;;;;;0.38;0.20;;;;;;;22.89;37.42;99447.22;5076344;27;99776;-78
2023/04/13 03:06:00;;;;;;;0.50;0.28;;;;;;;22.88;37.40;99465.56;5067681;27;96897;-77
2023/04/13 03:08:47;;;;;;;0.28;0.20;;;;;;;22.89;37.32;99477.34;5069863;27;96780;-79
2023/04/13 03:11:22;;;;;;;0.30;0.22;;;;;;;22.89;37.51;99482.81;5064189;27;100880;-78
2023/04/13 03:14:20;;;;;;;0.30;0.20;;;;;;;22.88;37.53;99494.81;5058393;27;99470;-79
2023/04/13 03:16:53;;;;;;;0.32;0.20;;;;;;;22.87;37.24;99488.50;5070520;27;96936;-77
2023/04/13 03:19:24;;;;;;;0.57;0.30;;;;;;;22.88;37.51;99492.09;5076883;27;96683;-78
2023/04/13 03:21:51;;;;;;;0.35;0.20;;;;;;;22.88;37.37;99494.81;5071530;27;97255;-78
2023/04/13 03:24:26;;;;;;;0.30;0.20;;;;;;;22.88;37.62;99506.63;5068663;27;101001;-78
2023/04/13 03:26:55;;;;;;;0.30;0.20;;;;;;;22.88;37.53;99508.50;5074496;27;96713;-78
2023/04/13 03:29:28;;;;;;;0.30;0.20;;;;;;;22.87;37.50;99515.88;5062163;27;97017;-78
2023/04/13 03:31:55;;;;;;;0.13;0.10;;;;;;;22.88;37.49;99512.09;5064702;27;97734;-78
2023/04/13 03:34:22;;;;;;;0.43;0.20;;;;;;;22.88;37.62;99512.09;5072149;27;100424;-77
2023/04/13 03:36:50;;;;;;;0.38;0.10;;;;;;;22.88;37.65;99511.25;5073642;27;97622;-78
2023/04/13 03:39:19;;;;;;;0.90;0.30;;;;;;;22.90;37.44;99520.09;5073248;27;96760;-78
2023/04/13 03:41:45;;;;;;;0.32;0.20;;;;;;;22.88;37.59;99514.84;5076660;27;97640;-79
2023/04/13 03:44:12;;;;;;;0.28;0.20;;;;;;;22.90;37.60;99522.81;5077066;27;99073;-78
2023/04/13 03:46:39;;;;;;;0.40;0.20;;;;;;;22.89;37.75;99523.88;5071764;27;97185;-78
2023/04/13 03:49:18;;;;;;;0.40;0.28;;;;;;;22.88;37.59;99528.53;5054834;27;96928;-77
2023/04/13 03:51:45;;;;;;;0.63;0.30;;;;;;;22.89;37.58;99535.66;5069255;27;99560;-78
2023/04/13 03:54:13;;;;;;;0.30;0.20;;;;;;;22.88;37.36;99536.72;5063978;27;100097;-78
2023/04/13 03:56:39;;;;;;;0.38;0.28;;;;;;;22.88;37.57;99553.16;5068010;27;96806;-78
2023/04/13 03:59:07;;;;;;;0.57;0.20;;;;;;;22.89;37.42;99554.00;5063913;27;96766;-78
2023/04/13 04:01:34;;;;;;;0.20;0.17;;;;;;;22.88;37.68;99558.63;5074767;27;97694;-79
2023/04/13 04:04:00;;;;;;;0.22;0.13;;;;;;;22.88;37.45;99555.06;5073527;27;100303;-78
2023/04/13 04:06:28;;;;;;;0.20;0.20;;;;;;;22.88;37.61;99555.91;5065889;27;96838;-78
2023/04/13 04:09:12;;;;;;;0.20;0.20;;;;;;;22.88;37.68;99555.91;5064258;27;96880;-78
2023/04/13 04:11:43;;;;;;;0.20;0.10;;;;;;;22.89;37.59;99562.22;5061664;27;96984;-79
2023/04/13 04:14:11;;;;;;;0.20;0.20;;;;;;;22.89;37.29;99574.00;5077891;27;99460;-78
2023/04/13 04:16:46;;;;;;;;;;;;;;;22.85;37.73;99569.19;5061218;27;96835;-79
2023/04/13 04:19:15;;;;;;;0.43;0.28;;;;;;;22.83;37.62;99574.88;5075297;27;97143;-79
2023/04/13 04:21:43;;;;;;;0.15;0.10;;;;;;;22.86;37.45;99574.44;5075533;27;100167;-78
2023/04/13 04:24:19;;;;;;;0.30;0.17;;;;;;;22.86;37.33;99582.66;5073399;27;99217;-78
2023/04/13 04:26:49;;;;;;;0.13;0.10;;;;;;;22.86;37.44;99588.13;5089618;27;97529;-79
2023/04/13 04:29:16;;;;;;;0.35;0.20;;;;;;;22.87;37.43;99588.97;5071266;27;96861;-78
2023/04/13 04:31:45;;;;;;;0.32;0.20;;;;;;;22.87;37.73;99584.34;5070935;27;100386;-78
2023/04/13 04:34:15;;;;;;;0.50;0.20;;;;;;;22.86;37.20;99588.13;5072774;27;101050;-78
2023/04/13 04:36:44;;;;;;;0.17;0.10;;;;;;;22.88;37.38;99596.97;5060867;27;97306;-78
2023/04/13 04:39:13;;;;;;;0.25;0.17;;;;;;;22.88;37.65;99604.34;5079917;27;96687;-78
2023/04/13 04:41:53;;;;;;;0.35;0.30;;;;;;;22.88;37.59;99604.34;5081723;27;100047;-79
2023/04/13 04:44:29;;;;;;;0.40;0.20;;;;;;;22.87;37.61;99608.13;5074264;27;99308;-77
2023/04/13 04:46:59;;;;;;;0.60;0.20;;;;;;;22.87;37.63;99608.13;5072757;27;97599;-78
2023/04/13 04:49:26;;;;;;;0.35;0.35;;;;;;;22.87;37.41;99606.22;5074016;27;98924;-77
2023/04/13 04:51:56;;;;;;;0.32;0.20;;;;;;;22.89;37.59;99608.75;5071699;27;100730;-78
2023/04/13 04:54:23;;;;;;;0.17;0.17;;;;;;;22.88;37.71;99618.03;5083729;27;98310;-78
2023/04/13 04:56:50;;;;;;;0.40;0.20;;;;;;;22.88;37.29;99618.88;5072751;27;96865;-78
2023/04/13 04:59:18;;;;;;;0.22;0.20;;;;;;;22.88;37.49;99631.72;5070962;27;96758;-78
2023/04/13 05:01:54;;;;;;;0.10;0.10;;;;;;;22.88;37.47;99631.72;5068650;27;100939;-78
2023/04/13 05:04:21;;;;;;;0.20;0.10;;;;;;;22.87;37.59;99636.34;5078420;27;100432;-78
2023/04/13 05:06:48;;;;;;;0.20;0.10;;;;;;;22.87;37.38;99641.81;5059246;27;96901;-78
2023/04/13 05:09:19;;;;;;;0.63;0.25;;;;;;;22.88;37.43;99642.66;5080224;27;96739;-78
2023/04/13 05:11:50;;;;;;;0.30;0.20;;;;;;;22.88;37.61;99637.19;5071121;27;97894;-78
2023/04/13 05:14:18;;;;;;;0.30;0.20;;;;;;;22.88;37.60;99637.19;5078821;27;99218;-78
2023/04/13 05:16:45;;;;;;;0.30;0.20;;;;;;;22.88;37.23;99639.94;5054034;27;96890;-78
2023/04/13 05:19:23;;;;;;;0.45;0.20;;;;;;;22.87;37.31;99652.78;5078768;27;96883;-78
2023/04/13 05:22:08;;;;;;;0.55;0.22;;;;;;;22.87;37.72;99654.66;5067702;27;98820;-78
2023/04/13 05:24:41;;;;;;;0.10;0.10;;;;;;;22.87;37.49;99654.66;5074714;27;97440;-79
2023/04/13 05:27:12;;;;;;;0.30;0.20;;;;;;;22.87;37.68;99660.97;5072616;27;97002;-78
2023/04/13 05:29:39;;;;;;;0.38;0.20;;;;;;;22.87;37.47;99658.25;5068221;27;96773;-78
2023/04/13 05:32:06;;;;;;;0.30;0.20;;;;;;;22.88;37.46;99665.41;5058864;27;98910;-77
2023/04/13 05:34:36;;;;;;;0.28;0.28;;;;;;;22.89;37.49;99671.72;5085420;27;99095;-78
2023/04/13 05:37:14;;;;;;;0.20;0.10;;;;;;;22.88;37.43;99676.34;5077780;27;96787;-77
2023/04/13 05:39:42;;;;;;;0.40;0.20;;;;;;;22.89;37.46;99683.50;5065241;27;98321;-78
2023/04/13 05:42:10;;;;;;;0.32;0.20;;;;;;;22.89;37.54;99685.41;5067988;27;100982;-78
2023/04/13 05:44:42;;;;;;;0.15;0.10;;;;;;;22.89;37.37;99685.41;5065763;27;97003;-78
2023/04/13 05:47:10;;;;;;;0.28;0.20;;;;;;;22.90;37.47;99698.03;5069229;27;96953;-78
2023/04/13 05:49:39;;;;;;;0.28;0.22;;;;;;;22.89;36.98;99694.47;5057586;27;96840;-77
2023/04/13 05:52:07;;;;;;;0.10;0.10;;;;;;;22.90;37.46;99706.25;5057336;27;100692;-78
2023/04/13 05:54:40;;;;;;;0.45;0.30;;;;;;;22.89;37.52;99702.69;5064655;27;99333;-77
2023/04/13 05:57:06;;;;;;;0.57;0.35;;;;;;;22.90;37.26;99715.31;5063087;27;98463;-78
2023/04/13 05:59:36;;;;;;;0.43;0.20;;;;;;;22.89;37.57;99715.53;5069992;27;97065;-79
2023/04/13 06:02:03;;;;;;;0.40;0.10;;;;;;;22.89;37.36;99721.84;5063958;27;98928;-78
2023/04/13 06:04:30;;;;;;;0.50;0.20;;;;;;;22.91;37.50;99724.38;5067893;27;100374;-79
2023/04/13 06:06:58;;;;;;;0.28;0.20;;;;;;;22.90;37.68;99723.53;5075541;27;96823;-78
2023/04/13 06:09:24;;;;;;;0.10;0.10;;;;;;;22.90;36.95;99736.38;5074760;27;96755;-79
2023/04/13 06:11:51;;;;;;;0.10;0.10;;;;;;;22.91;37.44;99735.31;5077708;27;99490;-78
2023/04/13 06:14:19;;;;;;;0.47;0.20;;;;;;;22.91;37.30;99752.59;5078051;27;100211;-78
2023/04/13 06:16:46;;;;;;;0.15;0.10;;;;;;;22.91;37.42;99755.31;5074913;27;96740;-79
2023/04/13 06:19:12;;;;;;;0.22;0.15;;;;;;;22.91;37.34;99758.06;5071017;27;97256;-80
2023/04/13 06:21:39;;;;;;;0.30;0.20;;;;;;;22.92;37.49;99769.84;5054974;27;100345;-78
2023/04/13 06:24:06;;;;;;;0.20;0.10;;;;;;;22.91;37.23;99765.44;5063232;27;97906;-79
2023/04/13 06:26:36;;;;;;;0.40;0.20;;;;;;;22.92;37.19;99764.38;5051037;27;96777;-78
2023/04/13 06:29:07;;;;;;;0.20;0.10;;;;;;;22.91;37.27;99777.22;5072871;27;96801;-79
2023/04/13 06:32:03;;;;;;;0.30;0.20;;;;;;;22.90;37.52;99774.69;4964631;28;98187;-79
2023/04/13 06:34:30;;;;;;;0.43;0.15;;;;;;;22.91;37.42;99781.84;4959332;28;97697;-80
2023/04/13 06:37:02;;;;;;;0.30;0.20;;;;;;;22.91;37.34;99781.84;4974007;28;96878;-79
2023/04/13 06:39:36;;;;;;;0.20;0.10;;;;;;;22.90;37.35;99791.13;4988426;28;96825;-78
2023/04/13 06:42:05;;;;;;;0.28;0.20;;;;;;;22.91;37.38;99787.34;4950697;28;99506;-77
2023/04/13 06:44:57;;;;;;;0.10;0.10;;;;;;;22.90;37.49;99786.50;4973185;28;97997;-79
2023/04/13 06:47:42;;;;;;;0.10;0.10;;;;;;;22.91;37.54;99792.81;4969764;28;97183;-78
2023/04/13 06:50:12;;;;;;;0.10;0.10;;;;;;;22.90;37.44;99799.34;5028053;27;96830;-78
2023/04/13 06:52:46;;;;;;;0.10;0.10;;;;;;;22.91;37.55;99806.50;5074188;27;97109;-79
2023/04/13 06:55:14;;;;;;;0.40;0.10;;;;;;;22.90;37.15;99802.06;5071170;27;100299;-78
2023/04/13 06:57:41;;;;;;;0.35;0.15;;;;;;;22.91;37.30;99811.97;5056520;27;96650;-79
2023/04/13 07:00:09;;;;;;;0.93;0.20;;;;;;;22.91;37.58;99815.56;5068606;27;98633;-79
2023/04/13 07:02:56;;;;;;;0.28;0.10;;;;;;;22.90;37.46;99821.25;5061183;27;96955;-79
2023/04/13 07:05:23;;;;;;;0.20;0.10;;;;;;;22.90;37.26;99823.97;5041711;27;99311;-78
2023/04/13 07:07:52;;;;;;;0.22;0.10;;;;;;;22.90;37.30;99832.19;5053716;27;97021;-79
2023/04/13 07:10:19;;;;;;;0.35;0.20;;;;;;;22.91;37.31;99836.63;5073842;27;96982;-78
2023/04/13 07:12:46;;;;;;;0.38;0.30;;;;;;;22.90;37.19;99834.94;5081007;27;97509;-79
2023/04/13 07:15:14;;;;;;;0.15;0.10;;;;;;;22.90;37.52;99834.94;5062286;27;100343;-79
2023/04/13 07:17:40;;;;;;;0.20;0.17;;;;;;;22.90;37.48;99844.00;5057185;27;97793;-79
2023/04/13 07:20:08;;;;;;;0.38;0.17;;;;;;;22.90;37.07;99846.72;5071262;27;97085;-79
2023/04/13 07:22:35;;;;;;;0.45;0.20;;;;;;;22.89;37.21;99845.03;5076692;27;100727;-78
2023/04/13 07:25:02;;;;;;;0.70;0.20;;;;;;;22.90;37.38;99848.63;5071917;27;99303;-78
2023/04/13 07:27:29;;;;;;;0.63;0.20;;;;;;;22.89;37.22;99855.16;5068262;27;96781;-78
2023/04/13 07:29:56;;;;;;;0.40;0.15;;;;;;;22.89;37.28;99852.41;5088531;27;96740;-79
2023/04/13 07:32:28;;;;;;;0.10;0.10;;;;;;;22.89;37.24;99853.25;5086359;27;100148;-78
2023/04/13 07:35:00;;;;;;;0.13;0.10;;;;;;;22.89;37.36;99855.16;5081029;27;100255;-78
2023/04/13 07:37:29;;;;;;;0.20;0.10;;;;;;;22.88;37.48;99862.53;5066684;27;97299;-78
2023/04/13 07:39:57;;;;;;;0.40;0.20;;;;;;;22.88;37.38;99867.16;5079207;27;97194;-78
2023/04/13 07:42:24;;;;;;;0.17;0.10;;;;;;;22.88;37.19;99868.00;5072594;27;99649;-78
2023/04/13 07:44:55;;;;;;;0.52;0.20;;;;;;;22.88;37.46;99865.25;5075718;27;96826;-78
2023/04/13 07:47:24;;;;;;;0.30;0.20;;;;;;;22.88;37.43;99865.25;5079094;27;97345;-79
2023/04/13 07:49:56;;;;;;;0.85;0.40;;;;;;;22.87;37.25;99869.06;5084633;27;97036;-78
2023/04/13 07:52:23;;;;;;;0.30;0.17;;;;;;;22.88;37.21;99878.09;5058059;27;97086;-79
2023/04/13 07:54:51;;;;;;;0.40;0.20;;;;;;;22.88;37.43;99878.09;5069450;27;97087;-79
2023/04/13 07:57:20;;;;;;;1.38;0.25;;;;;;;22.87;37.17;99877.28;5065287;27;97101;-80
2023/04/13 07:59:53;;;;;;;0.32;0.10;;;;;;;22.87;37.11;99881.91;5057450;27;96944;-79
2023/04/13 08:02:21;;;;;;;0.50;0.20;;;;;;;22.88;37.21;99883.59;5067726;27;97608;-79
2023/04/13 08:04:51;;;;;;;0.28;0.13;;;;;;;22.86;37.39;99892.00;5068189;27;100803;-77
2023/04/13 08:07:23;;;;;;;0.47;0.20;;;;;;;22.88;37.26;99897.28;5070808;27;97330;-78
2023/04/13 08:09:51;;;;;;;0.60;0.20;;;;;;;22.87;37.42;99896.44;5075398;27;97017;-78
2023/04/13 08:12:18;;;;;;;0.52;0.20;;;;;;;22.88;37.41;99902.75;5078198;27;99207;-79
2023/04/13 08:14:46;;;;;;;0.35;0.20;;;;;;;22.88;37.56;99913.69;5065297;27;99453;-78
2023/04/13 08:17:13;;;;;;;0.73;0.22;;;;;;;22.88;37.35;99916.44;5060517;27;96862;-79
2023/04/13 08:19:40;;;;;;;0.65;0.28;;;;;;;22.88;37.54;99908.22;5069207;27;96804;-79
2023/04/13 08:22:10;;;;;;;0.70;0.30;;;;;;;22.88;37.13;99924.66;5067527;27;99811;-79
2023/04/13 08:24:37;;;;;;;0.30;0.10;;;;;;;22.88;37.32;99928.22;5056035;27;100120;-78
2023/04/13 08:27:06;;;;;;;0.93;0.20;;;;;;;22.89;37.01;99921.72;5058989;27;97054;-80
2023/04/13 08:29:32;;;;;;;0.43;0.30;;;;;;;22.88;37.40;99941.94;5064796;27;97468;-79
2023/04/13 08:32:00;;;;;;;1.30;0.80;;;;;;;22.88;37.32;99939.19;5058592;27;99447;-79
2023/04/13 08:34:28;;;;;;;0.22;0.10;;;;;;;22.89;37.25;99949.09;5071417;27;100097;-79
2023/04/13 08:36:56;;;;;;;0.52;0.38;;;;;;;22.89;37.22;99950.97;5063051;27;97307;-78
2023/04/13 08:39:24;;;;;;;0.30;0.20;;;;;;;22.89;37.63;99957.28;5051144;27;96792;-78
2023/04/13 08:41:52;;;;;;;0.40;0.20;;;;;;;22.90;36.92;99960.88;5062537;27;100803;-78
2023/04/13 08:44:20;;;;;;;0.70;0.30;;;;;;;22.89;37.23;99960.03;5063400;27;97477;-78
2023/04/13 08:46:48;;;;;;;0.40;0.20;;;;;;;22.90;37.13;99966.34;5061676;27;96744;-79
2023/04/13 08:49:24;;;;;;;0.20;0.20;;;;;;;22.89;37.29;99959.19;5064292;27;96850;-79
2023/04/13 08:52:10;;;;;;;0.47;0.20;;;;;;;22.88;36.99;99980.25;5057785;27;99192;-79
2023/04/13 08:54:40;;;;;;;0.35;0.20;;;;;;;22.89;37.41;99981.94;5068033;27;99145;-80
2023/04/13 08:57:15;;;;;;;0.20;0.20;;;;;;;22.89;37.01;99984.69;5068496;27;96668;-79
2023/04/13 08:59:43;;;;;;;0.20;0.20;;;;;;;22.88;37.26;99996.69;5066118;27;97183;-78
2023/04/13 09:02:10;;;;;;;0.15;0.15;;;;;;;22.89;37.28;100009.31;5066984;27;100891;-79
2023/04/13 09:04:51;;;;;;;1.00;0.30;;;;;;;22.89;37.17;100003.84;5062633;27;100553;-77
2023/04/13 09:07:31;;;;;;;1.90;0.30;;;;;;;22.89;37.16;100009.31;5064561;27;96807;-79
2023/04/13 09:10:04;;;;;;;0.50;0.20;;;;;;;22.88;37.17;100018.59;5049832;27;97005;-79
2023/04/13 09:12:31;;;;;;;0.22;0.20;;;;;;;22.89;37.00;100022.16;5045498;27;98899;-79
2023/04/13 09:14:58;;;;;;;0.30;0.20;;;;;;;22.89;37.14;100025.75;5055750;27;100310;-78
2023/04/13 09:17:33;;;;;;;0.15;0.10;;;;;;;22.89;37.13;100025.75;5068018;27;96812;-79
2023/04/13 09:20:21;;;;;;;0.35;0.30;;;;;;;22.89;37.30;100033.13;5068836;27;96859;-79
2023/04/13 09:22:50;;;;;;;0.82;0.20;;;;;;;22.88;37.07;100035.00;5065743;27;97398;-79
2023/04/13 09:25:21;;;;;;;0.68;0.28;;;;;;;22.88;37.20;100048.69;5062121;27;99052;-78
2023/04/13 09:27:48;;;;;;;0.52;0.35;;;;;;;22.89;36.95;100046.81;5062660;27;97102;-79
2023/04/13 09:30:21;;;;;;;0.50;0.20;;;;;;;22.88;37.14;100051.44;5060194;27;97167;-79
2023/04/13 09:33:03;;;;;;;0.70;0.20;;;;;;;22.89;37.18;100053.13;5067350;27;96841;-79
2023/04/13 09:35:31;;;;;;;0.45;0.20;;;;;;;22.89;36.91;100057.75;5061246;27;99533;-79
2023/04/13 09:37:58;;;;;;;0.57;0.30;;;;;;;22.89;37.23;100064.09;5062112;27;97209;-79
2023/04/13 09:40:26;;;;;;;1.15;0.30;;;;;;;22.90;37.17;100071.25;5064738;27;96615;-78
2023/04/13 09:42:57;;;;;;;0.25;0.10;;;;;;;22.89;36.92;100075.03;5065846;27;99492;-78
2023/04/13 09:45:33;;;;;;;0.75;0.20;;;;;;;22.89;37.18;100075.03;5072203;27;98328;-78
2023/04/13 09:48:01;;;;;;;1.17;0.22;;;;;;;22.89;37.17;100077.78;5064091;27;96927;-79
2023/04/13 09:50:31;;;;;;;0.50;0.22;;;;;;;22.88;36.95;100078.81;5064754;27;96754;-78
2023/04/13 09:53:05;;;;;;;0.40;0.20;;;;;;;22.89;37.17;100090.63;5071601;27;97534;-79
2023/04/13 09:55:33;;;;;;;0.53;0.33;;;;;;;22.88;36.78;100099.88;5050292;27;100226;-79
2023/04/13 09:58:13;;;;;;;0.93;0.25;;;;;;;22.88;37.05;100110.84;5068713;27;97062;-78
2023/04/13 10:00:44;;;;;;;0.80;0.30;;;;;;;22.87;37.31;100103.66;5067964;27;96938;-79
2023/04/13 10:03:12;;;;;;;0.47;0.20;;;;;;;22.87;36.96;100107.25;5065837;27;97855;-79
2023/04/13 10:05:41;;;;;;;0.40;0.20;;;;;;;22.86;36.77;100110.19;5062070;27;97751;-78
2023/04/13 10:08:25;;;;;;;0.30;0.20;;;;;;;22.85;37.06;100111.25;5074477;27;97386;-78
2023/04/13 10:11:09;;;;;;;0.43;0.20;;;;;;;22.85;36.85;100117.56;5068398;27;98103;-79
2023/04/13 10:13:41;;;;;;;0.52;0.40;;;;;;;22.86;36.95;100121.16;5071480;27;98034;-78
2023/04/13 10:16:17;;;;;;;0.20;0.20;;;;;;;22.85;36.88;100122.19;5056449;27;96795;-79
2023/04/13 10:19:00;;;;;;;0.70;0.28;;;;;;;22.86;36.84;100118.41;5073693;27;99409;-79
2023/04/13 10:21:34;;;;;;;1.20;0.30;;;;;;;22.85;36.97;100123.03;5070532;27;97018;-79
2023/04/13 10:24:02;;;;;;;0.85;0.40;;;;;;;22.85;36.78;100125.78;5045332;27;100343;-79
2023/04/13 10:26:36;;;;;;;0.47;0.30;;;;;;;22.83;36.95;100128.72;5067360;27;98865;-78
2023/04/13 10:29:04;;;;;;;1.15;0.20;;;;;;;22.85;36.90;100133.16;5074244;27;96979;-79
2023/04/13 10:31:45;;;;;;;1.50;0.60;;;;;;;22.86;36.78;100143.06;5077713;27;96886;-79
2023/04/13 10:34:48;;;;;;;0.60;0.30;;;;;;;22.85;37.02;100155.91;5074147;27;97322;-78
2023/04/13 10:37:20;;;;;;;0.32;0.15;;;;;;;22.83;36.76;100161.56;4968332;28;96915;-79
2023/04/13 10:39:47;;;;;;;0.50;0.20;;;;;;;22.83;36.92;100166.22;5051866;27;96820;-79
2023/04/13 10:42:14;;;;;;;0.57;0.25;;;;;;;22.83;36.71;100163.47;5062761;27;98192;-79
2023/04/13 10:44:53;;;;;;;0.65;0.30;;;;;;;22.83;36.83;100164.31;5073517;27;98655;-78
2023/04/13 10:47:21;;;;;;;0.77;0.30;;;;;;;22.85;36.92;100171.47;5063877;27;97188;-79
2023/04/13 10:49:50;;;;;;;0.30;0.30;;;;;;;22.85;36.79;100169.59;5072094;27;96797;-79
2023/04/13 10:52:16;;;;;;;1.00;0.65;;;;;;;22.85;36.97;100172.31;5069819;27;97030;-79
2023/04/13 10:54:43;;;;;;;0.65;0.30;;;;;;;22.84;36.87;100173.38;5060672;27;99074;-80
2023/04/13 10:57:11;;;;;;;0.40;0.20;;;;;;;22.87;36.96;100169.38;5051737;27;96805;-79
2023/04/13 10:59:52;;;;;;;0.52;0.20;;;;;;;22.87;36.77;100180.34;5053813;27;97179;-79
2023/04/13 11:02:30;;;;;;;1.05;0.32;;;;;;;22.86;36.78;100181.38;5048155;27;97020;-78
2023/04/13 11:04:58;;;;;;;0.55;0.28;;;;;;;22.86;36.63;100178.66;5053996;27;98494;-79
2023/04/13 11:07:25;;;;;;;0.10;0.10;;;;;;;22.86;37.08;100186.88;5067502;27;98162;-80
2023/04/13 11:09:58;;;;;;;0.63;0.28;;;;;;;22.87;37.02;100194.03;5059978;27;97662;-79
2023/04/13 11:12:28;;;;;;;0.45;0.20;;;;;;;22.87;36.94;100196.75;5069697;27;96612;-79
2023/04/13 11:14:55;;;;;;;0.40;0.20;;;;;;;22.87;37.24;100199.50;5079991;27;97806;-78
2023/04/13 11:17:21;;;;;;;0.55;0.25;;;;;;;22.86;36.86;100209.59;5072660;27;97271;-79
2023/04/13 11:19:54;;;;;;;1.63;0.25;;;;;;;22.88;36.75;100221.19;5073525;27;96892;-78
2023/04/13 11:22:24;;;;;;;0.60;0.38;;;;;;;22.88;37.12;100220.34;5072108;27;96656;-78
2023/04/13 11:24:52;;;;;;;0.52;0.25;;;;;;;22.88;36.78;100220.34;5070612;27;97285;-79
2023/04/13 11:27:23;;;;;;;0.50;0.38;;;;;;;22.88;36.82;100214.88;5045843;27;99624;-78
2023/04/13 11:29:58;;;;;;;0.47;0.20;;;;;;;22.89;36.55;100224.78;5069328;27;96897;-78
2023/04/13 11:32:25;;;;;;;0.55;0.22;;;;;;;22.87;36.96;100233.19;5075306;27;97437;-78
2023/04/13 11:34:52;;;;;;;0.80;0.30;;;;;;;22.88;36.94;100223.09;5070510;27;97652;-79
2023/04/13 11:37:18;;;;;;;0.30;0.20;;;;;;;22.88;36.94;100220.34;5065594;27;97471;-78
2023/04/13 11:39:45;;;;;;;0.50;0.20;;;;;;;22.87;36.71;100227.72;5064996;27;96916;-78
2023/04/13 11:42:12;;;;;;;1.35;0.40;;;;;;;22.88;36.76;100231.31;5069717;27;97228;-79
2023/04/13 11:44:38;;;;;;;0.20;0.20;;;;;;;22.88;36.92;100237.63;5058691;27;97551;-77
2023/04/13 11:47:06;;;;;;;0.80;0.30;;;;;;;22.88;36.77;100236.78;5064098;27;97714;-78
2023/04/13 11:49:33;;;;;;;0.30;0.15;;;;;;;22.87;36.71;100232.34;5061973;27;96802;-79